sensor_id;sensor_type;location;lat;lon;timestamp;temperature;humidity
19033;DHT22;9649;51.042;13.804;2023-01-29T16:32:15;1.20;1.00
19033;DHT22;9649;51.042;13.804;2023-01-29T16:37:21;1.30;99.90
19033;DHT22;9649;51.042;13.804;2023-01-29T16:42:28;1.50;1.00
19033;DHT22;9649;51.042;13.804;2023-01-29T16:47:34;1.70;1.00
19033;DHT22;9649;51.042;13.804;2023-01-29T16:52:37;1.90;1.00
19033;DHT22;9649;51.042;13.804;2023-01-29T16:57:41;1.90;1.00
19033;DHT22;9649;51.042;13.804;2023-01-29T17:02:50;1.90;1.00
19033;DHT22;9649;51.042;13.804;2023-01-29T17:07:55;2.00;1.00
19033;DHT22;9649;51.042;13.804;2023-01-29T17:13:02;2.20;99.90
19033;DHT22;9649;51.042;13.804;2023-01-29T17:18:14;2.20;99.90
19033;DHT22;9649;51.042;13.804;2023-01-29T17:23:19;2.10;96.20
19033;DHT22;9649;51.042;13.804;2023-01-29T17:28:22;2.10;99.90
19033;DHT22;9649;51.042;13.804;2023-01-29T17:33:26;2.10;99.90
19033;DHT22;9649;51.042;13.804;2023-01-29T17:38:28;2.00;86.60
19033;DHT22;9649;51.042;13.804;2023-01-29T17:43:31;2.00;1.00
19033;DHT22;9649;51.042;13.804;2023-01-29T17:48:35;2.00;99.90
19033;DHT22;9649;51.042;13.804;2023-01-29T17:53:38;2.00;1.00
19033;DHT22;9649;51.042;13.804;2023-01-29T17:58:46;2.00;1.00
19033;DHT22;9649;51.042;13.804;2023-01-29T18:03:50;1.90;99.90
19033;DHT22;9649;51.042;13.804;2023-01-29T18:08:53;1.90;1.00
19033;DHT22;9649;51.042;13.804;2023-01-29T18:13:57;1.90;1.00
19033;DHT22;9649;51.042;13.804;2023-01-29T18:19:11;1.90;1.00
19033;DHT22;9649;51.042;13.804;2023-01-29T18:24:15;1.80;1.00
19033;DHT22;9649;51.042;13.804;2023-01-29T18:29:18;1.90;1.00
19033;DHT22;9649;51.042;13.804;2023-01-29T18:34:22;1.80;1.00
19033;DHT22;9649;51.042;13.804;2023-01-29T18:39:25;1.80;1.00
19033;DHT22;9649;51.042;13.804;2023-01-29T18:44:27;1.80;1.00
19033;DHT22;9649;51.042;13.804;2023-01-29T18:49:31;1.70;1.00
19033;DHT22;9649;51.042;13.804;2023-01-29T18:54:34;1.70;1.00
19033;DHT22;9649;51.042;13.804;2023-01-29T18:59:37;1.60;1.00
19033;DHT22;9649;51.042;13.804;2023-01-29T19:04:41;1.50;1.00
19033;DHT22;9649;51.042;13.804;2023-01-29T19:09:44;1.50;1.00
19033;DHT22;9649;51.042;13.804;2023-01-29T19:14:47;1.50;1.00
19033;DHT22;9649;51.042;13.804;2023-01-29T19:19:51;1.50;1.00
19033;DHT22;9649;51.042;13.804;2023-01-29T19:24:56;1.50;1.00
19033;DHT22;9649;51.042;13.804;2023-01-29T19:29:59;1.40;1.00
19033;DHT22;9649;51.042;13.804;2023-01-29T19:35:06;1.40;1.00
19033;DHT22;9649;51.042;13.804;2023-01-29T19:40:10;1.30;1.00
19033;DHT22;9649;51.042;13.804;2023-01-29T19:45:12;1.30;1.00
19033;DHT22;9649;51.042;13.804;2023-01-29T20:07:30;1.10;1.00
19033;DHT22;9649;51.042;13.804;2023-01-29T21:27:30;-0.40;1.00
19033;DHT22;9649;51.042;13.804;2023-01-29T21:32:41;-0.40;99.90
19033;DHT22;9649;51.042;13.804;2023-01-29T21:37:47;-0.30;99.90
19033;DHT22;9649;51.042;13.804;2023-01-29T21:42:51;-0.30;1.00
19033;DHT22;9649;51.042;13.804;2023-01-29T21:48:15;-0.10;1.00
19033;DHT22;9649;51.042;13.804;2023-01-29T21:53:18;0.00;1.00
19033;DHT22;9649;51.042;13.804;2023-01-29T21:58:22;0.10;1.00
19033;DHT22;9649;51.042;13.804;2023-01-29T22:03:25;0.10;1.00
19033;DHT22;9649;51.042;13.804;2023-01-29T22:08:30;0.30;1.00
19033;DHT22;9649;51.042;13.804;2023-01-29T22:13:34;0.30;1.00
19033;DHT22;9649;51.042;13.804;2023-01-29T22:18:37;0.30;99.90
19033;DHT22;9649;51.042;13.804;2023-01-29T22:23:40;0.40;99.90
19033;DHT22;9649;51.042;13.804;2023-01-29T22:28:44;0.50;99.90
19033;DHT22;9649;51.042;13.804;2023-01-29T22:33:48;0.50;99.90
19033;DHT22;9649;51.042;13.804;2023-01-29T22:38:53;0.40;99.90
19033;DHT22;9649;51.042;13.804;2023-01-29T22:43:57;0.50;99.90
19033;DHT22;9649;51.042;13.804;2023-01-29T22:49:00;0.40;99.90
19033;DHT22;9649;51.042;13.804;2023-01-29T22:54:05;0.50;99.90
19033;DHT22;9649;51.042;13.804;2023-01-29T22:59:09;0.40;99.90
19033;DHT22;9649;51.042;13.804;2023-01-29T23:04:12;0.40;99.90
19033;DHT22;9649;51.042;13.804;2023-01-29T23:09:15;0.50;99.90
19033;DHT22;9649;51.042;13.804;2023-01-29T23:14:19;0.40;99.90
19033;DHT22;9649;51.042;13.804;2023-01-29T23:19:22;0.40;99.90
19033;DHT22;9649;51.042;13.804;2023-01-29T23:24:28;0.50;49.30
19033;DHT22;9649;51.042;13.804;2023-01-29T23:29:34;0.60;54.80
19033;DHT22;9649;51.042;13.804;2023-01-29T23:34:42;0.60;1.00
19033;DHT22;9649;51.042;13.804;2023-01-29T23:39:45;0.60;7.80
19033;DHT22;9649;51.042;13.804;2023-01-29T23:44:49;0.70;1.00
19033;DHT22;9649;51.042;13.804;2023-01-29T23:49:51;0.60;65.30
19033;DHT22;9649;51.042;13.804;2023-01-29T23:54:54;0.70;43.50
19033;DHT22;9649;51.042;13.804;2023-01-29T23:59:58;0.80;1.00
